^^
Saratoga-Weather Station Historical Data
Daily Summary for April 14, 2020 Units:  Both    English   Metric
Daily Weekly Monthly Yearly Custom
  High: Low: Average:
Temperature: 75.2 °F /  24 °C 69.6 °F /  20.9 °C 71.8 °F /  22.1 °C
Dew Point: 65.3 °F /  18.5 °C 59.2 °F /  15.1 °C 61.3 °F /  16.3 °C
Humidity: 83% 58% 70%
Wind Speed: 6.9mph /  11.1km/h - 0.9mph /  1.5km/h
Wind Gust: 9mph /  14.5km/h - -
Wind- - WSW
Pressure: 29.9 in /  1013.2 hPa 29.9 in /  1011.5 hPa -
Precipitation: 0 in /  0.0 mm    
Historical Graphs
 
 
Tabular Data for April 14, 2020
Time Temperature Dew Point Pressure Wind Wind Speed Wind Gust Humidity Rainfall Rate (Hourly) solar
00:04 74.8 °F /  23.8 °C 59.5 °F /  15.3 °C 29.9in /  1012.2hPa West 2mph /  3.2km/h 8mph /  12.9km/h 59% 0in /  0.0mm 0 W/m2
00:09 75 °F /  23.9 °C 59.2 °F /  15.1 °C 29.9in /  1012.2hPa West 2mph /  3.2km/h 9mph /  14.5km/h 58% 0in /  0.0mm 0 W/m2
00:14 75 °F /  23.9 °C 59.2 °F /  15.1 °C 29.9in /  1012.2hPa WNW 4mph /  6.4km/h 4mph /  6.4km/h 58% 0in /  0.0mm 0 W/m2
00:19 75 °F /  23.9 °C 59.2 °F /  15.1 °C 29.9in /  1012.2hPa WSW 2.9mph /  4.7km/h 7mph /  11.3km/h 58% 0in /  0.0mm 0 W/m2
00:24 75 °F /  23.9 °C 59.2 °F /  15.1 °C 29.9in /  1012.2hPa West 6.9mph /  11.1km/h 8mph /  12.9km/h 58% 0in /  0.0mm 0 W/m2
00:29 75 °F /  23.9 °C 59.2 °F /  15.1 °C 29.9in /  1012.2hPa WNW 4mph /  6.4km/h 6mph /  9.7km/h 58% 0in /  0.0mm 0 W/m2
00:34 75 °F /  23.9 °C 59.2 °F /  15.1 °C 29.9in /  1012.2hPa West 2.9mph /  4.7km/h 8mph /  12.9km/h 58% 0in /  0.0mm 0 W/m2
00:39 75 °F /  23.9 °C 59.2 °F /  15.1 °C 29.9in /  1012.2hPa West 2.9mph /  4.7km/h 7mph /  11.3km/h 58% 0in /  0.0mm 0 W/m2
00:44 75.2 °F /  24 °C 59.4 °F /  15.2 °C 29.9in /  1012.2hPa WNW 4mph /  6.4km/h 4mph /  6.4km/h 58% 0in /  0.0mm 0 W/m2
00:49 75.2 °F /  24 °C 59.4 °F /  15.2 °C 29.9in /  1012.2hPa NW 2mph /  3.2km/h 4mph /  6.4km/h 58% 0in /  0.0mm 0 W/m2
00:54 75 °F /  23.9 °C 59.2 °F /  15.1 °C 29.9in /  1012.2hPa WNW 2.9mph /  4.7km/h 7mph /  11.3km/h 58% 0in /  0.0mm 0 W/m2
00:59 74.8 °F /  23.8 °C 59.5 °F /  15.3 °C 29.9in /  1012.2hPa West 2mph /  3.2km/h 9mph /  14.5km/h 59% 0in /  0.0mm 0 W/m2
01:05 74.8 °F /  23.8 °C 59.5 °F /  15.3 °C 29.9in /  1012.2hPa WNW 2mph /  3.2km/h 6mph /  9.7km/h 59% 0in /  0.0mm 0 W/m2
01:10 74.8 °F /  23.8 °C 59.5 °F /  15.3 °C 29.9in /  1012.2hPa NW 2.9mph /  4.7km/h 8mph /  12.9km/h 59% 0in /  0.0mm 0 W/m2
01:15 74.8 °F /  23.8 °C 59.5 °F /  15.3 °C 29.9in /  1012.2hPa WNW 0.9mph /  1.4km/h 2mph /  3.2km/h 59% 0in /  0.0mm 0 W/m2
01:20 74.7 °F /  23.7 °C 59.9 °F /  15.5 °C 29.9in /  1012.2hPa NW 0.9mph /  1.4km/h 5mph /  8km/h 60% 0in /  0.0mm 0 W/m2
01:25 74.7 °F /  23.7 °C 59.9 °F /  15.5 °C 29.9in /  1012.2hPa WNW 2mph /  3.2km/h 3mph /  4.8km/h 60% 0in /  0.0mm 0 W/m2
01:30 74.3 °F /  23.5 °C 59.9 °F /  15.5 °C 29.9in /  1012.2hPa West 2.9mph /  4.7km/h 4mph /  6.4km/h 61% 0in /  0.0mm 0 W/m2
01:35 73.9 °F /  23.3 °C 59.7 °F /  15.4 °C 29.9in /  1012.2hPa West 2.9mph /  4.7km/h 3mph /  4.8km/h 61% 0in /  0.0mm 0 W/m2
01:40 73.8 °F /  23.2 °C 59.9 °F /  15.5 °C 29.9in /  1012.2hPa Calm     62% 0in /  0.0mm 0 W/m2
01:45 73.4 °F /  23 °C 59.5 °F /  15.3 °C 29.9in /  1012.2hPa Calm     62% 0in /  0.0mm 0 W/m2
01:50 73 °F /  22.8 °C 59.7 °F /  15.4 °C 29.9in /  1011.9hPa Calm     63% 0in /  0.0mm 0 W/m2
01:55 72.9 °F /  22.7 °C 59.9 °F /  15.5 °C 29.9in /  1011.9hPa Calm     64% 0in /  0.0mm 0 W/m2
02:00 72.7 °F /  22.6 °C 59.7 °F /  15.4 °C 29.9in /  1011.9hPa Calm     64% 0in /  0.0mm 0 W/m2
02:05 72.3 °F /  22.4 °C 59.9 °F /  15.5 °C 29.9in /  1011.9hPa Calm     65% 0in /  0.0mm 0 W/m2
02:10 72.1 °F /  22.3 °C 59.7 °F /  15.4 °C 29.9in /  1011.9hPa Calm   2mph /  3.2km/h 65% 0in /  0.0mm 0 W/m2
02:15 72.3 °F /  22.4 °C 59.5 °F /  15.3 °C 29.9in /  1011.9hPa West 2.9mph /  4.7km/h 3mph /  4.8km/h 64% 0in /  0.0mm 0 W/m2
02:20 72.9 °F /  22.7 °C 59.5 °F /  15.3 °C 29.9in /  1011.9hPa West 2mph /  3.2km/h 8mph /  12.9km/h 63% 0in /  0.0mm 0 W/m2
02:25 73.6 °F /  23.1 °C 59.7 °F /  15.4 °C 29.9in /  1011.9hPa WNW 2mph /  3.2km/h 3mph /  4.8km/h 62% 0in /  0.0mm 0 W/m2
02:30 73.9 °F /  23.3 °C 60.1 °F /  15.6 °C 29.9in /  1011.9hPa West 0.9mph /  1.4km/h 5mph /  8km/h 62% 0in /  0.0mm 0 W/m2
02:35 73.9 °F /  23.3 °C 59.7 °F /  15.4 °C 29.9in /  1011.9hPa WSW 2mph /  3.2km/h 3mph /  4.8km/h 61% 0in /  0.0mm 0 W/m2
02:40 73.9 °F /  23.3 °C 59.7 °F /  15.4 °C 29.9in /  1011.9hPa West 0.9mph /  1.4km/h 2mph /  3.2km/h 61% 0in /  0.0mm 0 W/m2
02:46 73.9 °F /  23.3 °C 59.7 °F /  15.4 °C 29.9in /  1011.9hPa WNW 0.9mph /  1.4km/h 2mph /  3.2km/h 61% 0in /  0.0mm 0 W/m2
02:51 73.8 °F /  23.2 °C 59.9 °F /  15.5 °C 29.9in /  1011.9hPa West 2mph /  3.2km/h 3mph /  4.8km/h 62% 0in /  0.0mm 0 W/m2
02:56 73.6 °F /  23.1 °C 59.7 °F /  15.4 °C 29.9in /  1011.9hPa West 0.9mph /  1.4km/h 3mph /  4.8km/h 62% 0in /  0.0mm 0 W/m2
03:01 73.6 °F /  23.1 °C 59.7 °F /  15.4 °C 29.9in /  1011.5hPa Calm   2mph /  3.2km/h 62% 0in /  0.0mm 0 W/m2
03:06 73.4 °F /  23 °C 59.5 °F /  15.3 °C 29.9in /  1011.9hPa West 0.9mph /  1.4km/h 3mph /  4.8km/h 62% 0in /  0.0mm 0 W/m2
03:11 73.2 °F /  22.9 °C 59.9 °F /  15.5 °C 29.9in /  1011.9hPa West 0.9mph /  1.4km/h 2mph /  3.2km/h 63% 0in /  0.0mm 0 W/m2
03:16 73 °F /  22.8 °C 59.7 °F /  15.4 °C 29.9in /  1011.9hPa WSW 2mph /  3.2km/h 3mph /  4.8km/h 63% 0in /  0.0mm 0 W/m2
03:21 73.2 °F /  22.9 °C 59.9 °F /  15.5 °C 29.9in /  1011.9hPa West 2mph /  3.2km/h 2mph /  3.2km/h 63% 0in /  0.0mm 0 W/m2
03:26 73.2 °F /  22.9 °C 59.9 °F /  15.5 °C 29.9in /  1011.9hPa West 2mph /  3.2km/h 3mph /  4.8km/h 63% 0in /  0.0mm 0 W/m2
03:31 73.4 °F /  23 °C 60.1 °F /  15.6 °C 29.9in /  1011.9hPa WNW 2mph /  3.2km/h 2mph /  3.2km/h 63% 0in /  0.0mm 0 W/m2
03:36 73.4 °F /  23 °C 59.5 °F /  15.3 °C 29.9in /  1011.9hPa WNW 2mph /  3.2km/h 4mph /  6.4km/h 62% 0in /  0.0mm 0 W/m2
03:41 73.4 °F /  23 °C 60.1 °F /  15.6 °C 29.9in /  1011.9hPa NW 0.9mph /  1.4km/h 2mph /  3.2km/h 63% 0in /  0.0mm 0 W/m2
03:46 73.4 °F /  23 °C 60.1 °F /  15.6 °C 29.9in /  1011.9hPa NW 0.9mph /  1.4km/h 2mph /  3.2km/h 63% 0in /  0.0mm 0 W/m2
03:51 73.2 °F /  22.9 °C 59.9 °F /  15.5 °C 29.9in /  1011.9hPa Calm   1mph /  1.6km/h 63% 0in /  0.0mm 0 W/m2
03:56 72.9 °F /  22.7 °C 60.4 °F /  15.8 °C 29.9in /  1011.9hPa Calm     65% 0in /  0.0mm 0 W/m2
04:01 72.7 °F /  22.6 °C 60.3 °F /  15.7 °C 29.9in /  1011.9hPa North 2mph /  3.2km/h 2mph /  3.2km/h 65% 0in /  0.0mm 0 W/m2
04:06 72.3 °F /  22.4 °C 60.3 °F /  15.7 °C 29.9in /  1011.9hPa Calm   1mph /  1.6km/h 66% 0in /  0.0mm 0 W/m2
04:11 72.1 °F /  22.3 °C 60.1 °F /  15.6 °C 29.9in /  1011.9hPa NE 0.9mph /  1.4km/h 2mph /  3.2km/h 66% 0in /  0.0mm 0 W/m2
04:16 72 °F /  22.2 °C 60.4 °F /  15.8 °C 29.9in /  1011.9hPa East 0.9mph /  1.4km/h 2mph /  3.2km/h 67% 0in /  0.0mm 0 W/m2
04:21 71.6 °F /  22 °C 60.1 °F /  15.6 °C 29.9in /  1011.9hPa East 0.9mph /  1.4km/h 1mph /  1.6km/h 67% 0in /  0.0mm 0 W/m2
04:26 71.4 °F /  21.9 °C 60.3 °F /  15.7 °C 29.9in /  1011.9hPa Calm   1mph /  1.6km/h 68% 0in /  0.0mm 0 W/m2
04:31 71.2 °F /  21.8 °C 60.1 °F /  15.6 °C 29.9in /  1011.9hPa Calm     68% 0in /  0.0mm 0 W/m2
04:37 71.1 °F /  21.7 °C 60.4 °F /  15.8 °C 29.9in /  1011.9hPa Calm     69% 0in /  0.0mm 0 W/m2
04:42 70.9 °F /  21.6 °C 60.3 °F /  15.7 °C 29.9in /  1011.9hPa Calm     69% 0in /  0.0mm 0 W/m2
04:47 70.7 °F /  21.5 °C 60.1 °F /  15.6 °C 29.9in /  1011.9hPa Calm     69% 0in /  0.0mm 0 W/m2
04:52 70.5 °F /  21.4 °C 60.3 °F /  15.7 °C 29.9in /  1011.9hPa Calm     70% 0in /  0.0mm 0 W/m2
04:57 70.3 °F /  21.3 °C 60.1 °F /  15.6 °C 29.9in /  1011.9hPa Calm     70% 0in /  0.0mm 0 W/m2
05:02 70.3 °F /  21.3 °C 60.4 °F /  15.8 °C 29.9in /  1011.9hPa Calm     71% 0in /  0.0mm 0 W/m2
05:07 70.2 °F /  21.2 °C 60.3 °F /  15.7 °C 29.9in /  1011.9hPa Calm     71% 0in /  0.0mm 0 W/m2
05:12 70 °F /  21.1 °C 60.1 °F /  15.6 °C 29.9in /  1011.9hPa SE 0.9mph /  1.4km/h 2mph /  3.2km/h 71% 0in /  0.0mm 0 W/m2
05:17 69.6 °F /  20.9 °C 60.3 °F /  15.7 °C 29.9in /  1012.2hPa SE 0.9mph /  1.4km/h 1mph /  1.6km/h 72% 0in /  0.0mm 0 W/m2
05:22 69.6 °F /  20.9 °C 60.3 °F /  15.7 °C 29.9in /  1012.2hPa South 0.9mph /  1.4km/h 1mph /  1.6km/h 72% 0in /  0.0mm 0 W/m2
05:27 69.6 °F /  20.9 °C 60.3 °F /  15.7 °C 29.9in /  1012.2hPa Calm     72% 0in /  0.0mm 0 W/m2
05:32 69.6 °F /  20.9 °C 60.3 °F /  15.7 °C 29.9in /  1012.2hPa Calm   1mph /  1.6km/h 72% 0in /  0.0mm 0 W/m2
05:37 69.8 °F /  21 °C 60.4 °F /  15.8 °C 29.9in /  1012.2hPa Calm   1mph /  1.6km/h 72% 0in /  0.0mm 0 W/m2
05:42 69.8 °F /  21 °C 60.4 °F /  15.8 °C 29.9in /  1012.2hPa Calm     72% 0in /  0.0mm 0 W/m2
05:47 69.6 °F /  20.9 °C 60.6 °F /  15.9 °C 29.9in /  1012.2hPa Calm   2mph /  3.2km/h 73% 0in /  0.0mm 0 W/m2
05:52 69.8 °F /  21 °C 60.8 °F /  16 °C 29.9in /  1012.2hPa WSW 2mph /  3.2km/h 2mph /  3.2km/h 73% 0in /  0.0mm 0 W/m2
05:57 70 °F /  21.1 °C 61 °F /  16.1 °C 29.9in /  1012.2hPa WSW 0.9mph /  1.4km/h 2mph /  3.2km/h 73% 0in /  0.0mm 0 W/m2
06:02 70.2 °F /  21.2 °C 61.2 °F /  16.2 °C 29.9in /  1012.2hPa Calm   1mph /  1.6km/h 73% 0in /  0.0mm 0 W/m2
06:07 70.2 °F /  21.2 °C 60.6 °F /  15.9 °C 29.9in /  1012.2hPa Calm     72% 0in /  0.0mm 0 W/m2
06:12 70.2 °F /  21.2 °C 61.2 °F /  16.2 °C 29.9in /  1012.2hPa Calm   1mph /  1.6km/h 73% 0in /  0.0mm 0 W/m2
06:17 70.2 °F /  21.2 °C 61.2 °F /  16.2 °C 29.9in /  1012.2hPa Calm     73% 0in /  0.0mm 0 W/m2
06:22 70.2 °F /  21.2 °C 61.2 °F /  16.2 °C 29.9in /  1012.2hPa Calm   1mph /  1.6km/h 73% 0in /  0.0mm 0 W/m2
06:27 70.2 °F /  21.2 °C 61.2 °F /  16.2 °C 29.9in /  1012.2hPa Calm     73% 0in /  0.0mm 0 W/m2
06:32 70.2 °F /  21.2 °C 61.5 °F /  16.4 °C 29.9in /  1012.2hPa Calm     74% 0in /  0.0mm 0 W/m2
06:37 70.2 °F /  21.2 °C 61.5 °F /  16.4 °C 29.9in /  1012.2hPa Calm     74% 0in /  0.0mm 5 W/m2
06:42 70.2 °F /  21.2 °C 61.9 °F /  16.6 °C 29.9in /  1012.5hPa Calm     75% 0in /  0.0mm 11 W/m2
06:48 70 °F /  21.1 °C 61.7 °F /  16.5 °C 29.9in /  1012.5hPa Calm     75% 0in /  0.0mm 21 W/m2
06:53 70 °F /  21.1 °C 62.1 °F /  16.7 °C 29.9in /  1012.5hPa Calm     76% 0in /  0.0mm 25 W/m2
06:58 70 °F /  21.1 °C 62.1 °F /  16.7 °C 29.9in /  1012.5hPa Calm   1mph /  1.6km/h 76% 0in /  0.0mm 19 W/m2
07:03 70.2 °F /  21.2 °C 62.2 °F /  16.8 °C 29.9in /  1012.5hPa Calm     76% 0in /  0.0mm 14 W/m2
07:08 70.2 °F /  21.2 °C 62.2 °F /  16.8 °C 29.9in /  1012.5hPa Calm     76% 0in /  0.0mm 12 W/m2
07:13 70.2 °F /  21.2 °C 62.2 °F /  16.8 °C 29.9in /  1012.5hPa Calm     76% 0in /  0.0mm 16 W/m2
07:18 70.2 °F /  21.2 °C 62.6 °F /  17 °C 29.9in /  1012.5hPa West 0.9mph /  1.4km/h 3mph /  4.8km/h 77% 0in /  0.0mm 18 W/m2
07:23 70.2 °F /  21.2 °C 62.6 °F /  17 °C 29.9in /  1012.9hPa Calm   1mph /  1.6km/h 77% 0in /  0.0mm 19 W/m2
07:28 70.2 °F /  21.2 °C 62.6 °F /  17 °C 29.9in /  1012.9hPa Calm   1mph /  1.6km/h 77% 0in /  0.0mm 19 W/m2
07:33 70.2 °F /  21.2 °C 62.6 °F /  17 °C 29.9in /  1012.9hPa Calm     77% 0in /  0.0mm 21 W/m2
07:38 70.2 °F /  21.2 °C 62.6 °F /  17 °C 29.9in /  1012.9hPa Calm     77% 0in /  0.0mm 30 W/m2
07:43 70.2 °F /  21.2 °C 62.6 °F /  17 °C 29.9in /  1012.9hPa Calm     77% 0in /  0.0mm 35 W/m2
07:48 70.2 °F /  21.2 °C 63 °F /  17.2 °C 29.9in /  1012.9hPa Calm     78% 0in /  0.0mm 37 W/m2
07:53 70.3 °F /  21.3 °C 63.1 °F /  17.3 °C 29.9in /  1012.9hPa ESE 0.9mph /  1.4km/h 2mph /  3.2km/h 78% 0in /  0.0mm 37 W/m2
07:58 70.3 °F /  21.3 °C 63.1 °F /  17.3 °C 29.9in /  1012.9hPa WSW 0.9mph /  1.4km/h 3mph /  4.8km/h 78% 0in /  0.0mm 32 W/m2
08:03 70.3 °F /  21.3 °C 63.1 °F /  17.3 °C 29.9in /  1012.9hPa Calm   1mph /  1.6km/h 78% 0in /  0.0mm 33 W/m2
08:08 70.3 °F /  21.3 °C 63.1 °F /  17.3 °C 29.9in /  1012.9hPa WNW 0.9mph /  1.4km/h 1mph /  1.6km/h 78% 0in /  0.0mm 47 W/m2
08:13 70.3 °F /  21.3 °C 63.1 °F /  17.3 °C 29.9in /  1012.9hPa NE 0.9mph /  1.4km/h 3mph /  4.8km/h 78% 0in /  0.0mm 58 W/m2
08:18 70.3 °F /  21.3 °C 63.5 °F /  17.5 °C 29.9in /  1012.9hPa WNW 2mph /  3.2km/h 5mph /  8km/h 79% 0in /  0.0mm 63 W/m2
08:23 70.3 °F /  21.3 °C 63.5 °F /  17.5 °C 29.9in /  1012.9hPa NW 2mph /  3.2km/h 2mph /  3.2km/h 79% 0in /  0.0mm 58 W/m2
08:28 70.3 °F /  21.3 °C 63.5 °F /  17.5 °C 29.9in /  1012.9hPa Calm   4mph /  6.4km/h 79% 0in /  0.0mm 47 W/m2
08:33 70.3 °F /  21.3 °C 63.9 °F /  17.7 °C 29.9in /  1012.9hPa NW 0.9mph /  1.4km/h 2mph /  3.2km/h 80% 0in /  0.0mm 42 W/m2
08:38 70.3 °F /  21.3 °C 63.9 °F /  17.7 °C 29.9in /  1012.9hPa NNW 2mph /  3.2km/h 3mph /  4.8km/h 80% 0in /  0.0mm 47 W/m2
08:43 70.3 °F /  21.3 °C 63.9 °F /  17.7 °C 29.9in /  1013.2hPa Calm     80% 0in /  0.0mm 65 W/m2
08:48 70.3 °F /  21.3 °C 63.9 °F /  17.7 °C 29.9in /  1013.2hPa SSW 0.9mph /  1.4km/h 3mph /  4.8km/h 80% 0in /  0.0mm 72 W/m2
08:53 70.3 °F /  21.3 °C 63.9 °F /  17.7 °C 29.9in /  1013.2hPa North 0.9mph /  1.4km/h 2mph /  3.2km/h 80% 0in /  0.0mm 65 W/m2
08:58 70.3 °F /  21.3 °C 64.2 °F /  17.9 °C 29.9in /  1013.2hPa NNE 0.9mph /  1.4km/h 1mph /  1.6km/h 81% 0in /  0.0mm 65 W/m2
09:03 70.3 °F /  21.3 °C 64.2 °F /  17.9 °C 29.9in /  1013.2hPa ENE 0.9mph /  1.4km/h 1mph /  1.6km/h 81% 0in /  0.0mm 65 W/m2
09:08 70.3 °F /  21.3 °C 64.2 °F /  17.9 °C 29.9in /  1013.2hPa South 2mph /  3.2km/h 2mph /  3.2km/h 81% 0in /  0.0mm 69 W/m2
09:13 70.3 °F /  21.3 °C 64.2 °F /  17.9 °C 29.9in /  1013.2hPa Calm   1mph /  1.6km/h 81% 0in /  0.0mm 83 W/m2
09:18 70.3 °F /  21.3 °C 64.6 °F /  18.1 °C 29.9in /  1013.2hPa Calm     82% 0in /  0.0mm 102 W/m2
09:23 70.3 °F /  21.3 °C 64.6 °F /  18.1 °C 29.9in /  1013.2hPa East 0.9mph /  1.4km/h 2mph /  3.2km/h 82% 0in /  0.0mm 130 W/m2
09:28 70.3 °F /  21.3 °C 64.6 °F /  18.1 °C 29.9in /  1013.2hPa NNW 0.9mph /  1.4km/h 2mph /  3.2km/h 82% 0in /  0.0mm 139 W/m2
09:33 70.5 °F /  21.4 °C 65.1 °F /  18.4 °C 29.9in /  1013.2hPa Calm   1mph /  1.6km/h 83% 0in /  0.0mm 128 W/m2
09:38 70.3 °F /  21.3 °C 64.9 °F /  18.3 °C 29.9in /  1013.2hPa NW 0.9mph /  1.4km/h 2mph /  3.2km/h 83% 0in /  0.0mm 128 W/m2
09:43 70.3 °F /  21.3 °C 64.9 °F /  18.3 °C 29.9in /  1013.2hPa Calm     83% 0in /  0.0mm 123 W/m2
09:48 70.5 °F /  21.4 °C 65.1 °F /  18.4 °C 29.9in /  1013.2hPa WNW 0.9mph /  1.4km/h 2mph /  3.2km/h 83% 0in /  0.0mm 121 W/m2
09:53 70.5 °F /  21.4 °C 65.1 °F /  18.4 °C 29.9in /  1013.2hPa Calm   1mph /  1.6km/h 83% 0in /  0.0mm 132 W/m2
09:58 70.5 °F /  21.4 °C 65.1 °F /  18.4 °C 29.9in /  1013.2hPa Calm     83% 0in /  0.0mm 151 W/m2
10:03 70.7 °F /  21.5 °C 65.3 °F /  18.5 °C 29.9in /  1013.2hPa Calm   3mph /  4.8km/h 83% 0in /  0.0mm 174 W/m2
10:08 71.1 °F /  21.7 °C 65.3 °F /  18.5 °C 29.9in /  1013.2hPa Calm   1mph /  1.6km/h 82% 0in /  0.0mm 176 W/m2
10:13 71.2 °F /  21.8 °C 65.1 °F /  18.4 °C 29.9in /  1013.2hPa Calm   3mph /  4.8km/h 81% 0in /  0.0mm 197 W/m2
10:18 71.4 °F /  21.9 °C 65.3 °F /  18.5 °C 29.9in /  1013.2hPa North 0.9mph /  1.4km/h 1mph /  1.6km/h 81% 0in /  0.0mm 160 W/m2
10:23 71.8 °F /  22.1 °C 64.9 °F /  18.3 °C 29.9in /  1013.2hPa ESE 2mph /  3.2km/h 3mph /  4.8km/h 79% 0in /  0.0mm 121 W/m2
Juneau County Weather
Compliments of Weather Underground - 2 mb